createdAt,value
2023-05-10T00:01:36.582Z,92.32
2023-05-10T00:04:28.125Z,92.13
2023-05-10T00:07:18.554Z,92.13
2023-05-10T00:10:07.431Z,91.87
2023-05-10T00:12:55.572Z,91.84
2023-05-10T00:15:43.843Z,91.58
2023-05-10T00:18:31.824Z,91.85
2023-05-10T00:21:20.012Z,91.90
2023-05-10T00:24:09.391Z,92.47
2023-05-10T00:26:57.365Z,92.43
2023-05-10T00:29:45.785Z,92.44
2023-05-10T00:32:33.771Z,92.42
2023-05-10T00:35:22.759Z,92.43
2023-05-10T00:38:10.707Z,92.50
2023-05-10T00:41:00.251Z,92.63
2023-05-10T00:43:51.919Z,92.70
2023-05-10T00:46:40.165Z,92.26
2023-05-10T00:49:28.602Z,92.09
2023-05-10T00:52:16.582Z,92.10
2023-05-10T00:55:06.695Z,91.82
2023-05-10T00:57:56.179Z,92.33
2023-05-10T01:00:45.935Z,91.95
2023-05-10T01:03:34.332Z,91.61
2023-05-10T01:06:22.846Z,92.29
2023-05-10T01:09:12.574Z,92.38
2023-05-10T01:12:02.933Z,92.67
2023-05-10T01:14:52.970Z,92.61
2023-05-10T01:17:42.785Z,92.71
2023-05-10T01:20:38.360Z,93.02
2023-05-10T01:23:45.387Z,92.81
2023-05-10T01:27:18.114Z,92.93
2023-05-10T01:30:56.998Z,92.80
2023-05-10T01:33:53.217Z,92.70
2023-05-10T01:36:47.984Z,92.72
2023-05-10T01:39:46.332Z,92.66
2023-05-10T01:42:42.643Z,92.47
2023-05-10T01:45:35.646Z,92.40
2023-05-10T01:48:26.669Z,92.32
2023-05-10T01:51:21.843Z,92.16
2023-05-10T01:54:11.808Z,92.18
2023-05-10T01:57:04.415Z,92.20
2023-05-10T01:59:53.253Z,92.55
2023-05-10T02:02:44.213Z,92.01
2023-05-10T02:05:35.167Z,92.13
2023-05-10T02:08:25.858Z,92.04
2023-05-10T02:11:15.775Z,92.18
2023-05-10T02:14:04.674Z,92.11
2023-05-10T02:16:53.876Z,92.36
2023-05-10T02:19:44.082Z,92.32
2023-05-10T02:22:33.341Z,91.98
2023-05-10T02:25:24.254Z,92.22
2023-05-10T02:28:14.252Z,92.19
2023-05-10T02:31:02.989Z,92.11
2023-05-10T02:33:52.256Z,91.71
2023-05-10T02:36:41.457Z,92.33
2023-05-10T02:39:31.743Z,92.01
2023-05-10T02:42:24.461Z,91.54
2023-05-10T02:45:17.473Z,91.50
2023-05-10T02:48:06.208Z,91.24
2023-05-10T02:50:57.937Z,90.69
2023-05-10T02:53:48.194Z,91.14
2023-05-10T02:56:42.567Z,91.46
2023-05-10T02:59:33.773Z,91.68
2023-05-10T03:02:22.607Z,90.99
2023-05-10T03:05:11.039Z,91.23
2023-05-10T03:07:59.076Z,90.93
2023-05-10T03:10:57.486Z,91.02
2023-05-10T03:13:56.311Z,90.90
2023-05-10T03:16:48.965Z,90.93
2023-05-10T03:19:45.488Z,91.01
2023-05-10T03:22:39.003Z,90.92
2023-05-10T03:25:28.351Z,90.78
2023-05-10T03:28:17.517Z,90.71
2023-05-10T03:31:08.075Z,90.63
2023-05-10T03:33:57.901Z,90.84
2023-05-10T03:36:48.156Z,91.06
2023-05-10T03:39:36.665Z,91.04
2023-05-10T03:42:27.159Z,90.91
2023-05-10T03:45:15.295Z,90.55
2023-05-10T03:48:03.378Z,91.06
2023-05-10T03:50:53.295Z,91.10
2023-05-10T03:53:41.263Z,91.03
2023-05-10T03:56:29.628Z,90.97
2023-05-10T03:59:18.025Z,90.58
2023-05-10T04:02:06.045Z,91.07
2023-05-10T04:04:54.408Z,91.47
2023-05-10T04:07:45.232Z,91.04
2023-05-10T04:10:33.579Z,90.58
2023-05-10T04:13:21.649Z,90.63
2023-05-10T04:16:10.391Z,90.46
2023-05-10T04:18:58.363Z,90.65
2023-05-10T04:21:47.157Z,90.55
2023-05-10T04:24:36.520Z,89.73
2023-05-10T04:27:24.432Z,90.41
2023-05-10T04:30:13.312Z,90.33
2023-05-10T04:33:01.336Z,89.88
2023-05-10T04:35:49.534Z,90.29
2023-05-10T04:38:37.577Z,89.72
2023-05-10T04:41:27.286Z,89.23
2023-05-10T04:44:15.205Z,89.56
2023-05-10T04:47:04.153Z,89.22
2023-05-10T04:49:52.525Z,89.07
2023-05-10T04:52:40.446Z,89.07
2023-05-10T04:55:28.775Z,89.17
2023-05-10T04:58:18.092Z,88.69
2023-05-10T05:01:09.575Z,89.07
2023-05-10T05:03:57.725Z,89.04
2023-05-10T05:06:46.072Z,89.26
2023-05-10T05:09:34.242Z,88.92
2023-05-10T05:12:22.442Z,89.47
2023-05-10T05:15:12.776Z,88.97
2023-05-10T05:18:01.033Z,88.82
2023-05-10T05:20:49.293Z,88.90
2023-05-10T05:23:37.284Z,88.79
2023-05-10T05:26:25.715Z,88.38
2023-05-10T05:29:13.635Z,88.61
2023-05-10T05:32:03.384Z,87.95
2023-05-10T05:34:51.940Z,88.68
2023-05-10T05:37:39.916Z,88.15
2023-05-10T05:40:27.892Z,88.65
2023-05-10T05:43:16.186Z,88.69
2023-05-10T05:46:04.557Z,88.28
2023-05-10T05:48:53.851Z,88.69
2023-05-10T05:51:41.986Z,88.91
2023-05-10T05:54:30.463Z,88.78
2023-05-10T05:57:18.522Z,88.97
2023-05-10T06:00:08.135Z,89.21
2023-05-10T06:03:05.765Z,88.53
2023-05-10T06:05:55.026Z,88.77
2023-05-10T06:08:43.182Z,88.85
2023-05-10T06:11:33.096Z,88.63
2023-05-10T06:14:22.169Z,88.36
2023-05-10T06:17:10.365Z,88.50
2023-05-10T06:19:58.318Z,88.24
2023-05-10T06:22:47.799Z,88.59
2023-05-10T06:25:35.682Z,88.73
2023-05-10T06:28:23.956Z,88.22
2023-05-10T06:31:12.807Z,87.45
2023-05-10T06:34:00.988Z,87.75
2023-05-10T06:36:49.132Z,86.66
2023-05-10T06:39:38.735Z,86.99
2023-05-10T06:42:28.292Z,86.52
2023-05-10T06:45:17.068Z,84.59
2023-05-10T06:48:05.958Z,84.61
2023-05-10T06:50:54.004Z,85.04
2023-05-10T06:53:41.959Z,85.03
2023-05-10T06:56:31.217Z,85.15
2023-05-10T06:59:20.635Z,84.86
2023-05-10T07:02:08.951Z,83.62
2023-05-10T07:04:58.417Z,84.59
2023-05-10T07:07:48.687Z,85.22
2023-05-10T07:10:36.674Z,84.22
2023-05-10T07:13:26.267Z,84.85
2023-05-10T07:16:14.257Z,85.27
2023-05-10T07:19:03.450Z,86.23
2023-05-10T07:21:51.757Z,85.71
2023-05-10T07:24:40.009Z,86.39
2023-05-10T07:27:28.003Z,85.75
2023-05-10T07:30:17.380Z,85.66
2023-05-10T07:33:05.623Z,84.78
2023-05-10T07:35:53.540Z,84.81
2023-05-10T07:38:41.896Z,84.42
2023-05-10T07:41:29.832Z,83.86
2023-05-10T07:44:19.745Z,82.41
2023-05-10T07:47:09.072Z,81.04
2023-05-10T07:49:57.410Z,79.56
2023-05-10T07:52:45.638Z,80.23
2023-05-10T07:55:33.591Z,79.39
2023-05-10T07:58:22.031Z,77.62
2023-05-10T08:01:09.926Z,77.47
2023-05-10T08:04:01.187Z,76.59
2023-05-10T08:09:58.733Z,79.07
2023-05-10T08:12:47.213Z,77.32
2023-05-10T08:15:36.871Z,78.40
2023-05-10T08:18:24.878Z,78.58
2023-05-10T08:21:14.613Z,77.11
2023-05-10T08:24:03.231Z,78.00
2023-05-10T08:26:51.205Z,77.13
2023-05-10T08:29:49.639Z,77.43
2023-05-10T08:32:38.950Z,78.15
2023-05-10T08:35:27.325Z,78.43
2023-05-10T08:38:16.947Z,76.39
2023-05-10T08:41:06.248Z,77.18
2023-05-10T08:43:55.684Z,76.34
2023-05-10T08:46:48.556Z,76.02
2023-05-10T08:49:38.992Z,75.90
2023-05-10T08:52:28.438Z,74.45
2023-05-10T08:55:18.709Z,74.47
2023-05-10T08:58:07.215Z,73.60
2023-05-10T09:00:55.809Z,74.25
2023-05-10T09:03:44.525Z,73.77
2023-05-10T09:06:33.097Z,74.19
2023-05-10T09:09:22.383Z,72.97
2023-05-10T09:12:12.532Z,71.85
2023-05-10T09:17:51.321Z,72.27
2023-05-10T09:20:40.182Z,71.76
2023-05-10T09:23:33.045Z,74.78
2023-05-10T09:26:24.486Z,74.26
2023-05-10T09:29:15.995Z,75.35
2023-05-10T09:32:05.511Z,77.68
2023-05-10T09:34:53.671Z,79.01
2023-05-10T09:37:43.497Z,80.44
2023-05-10T09:40:32.680Z,82.19
2023-05-10T09:43:21.781Z,83.49
2023-05-10T09:46:12.612Z,83.77
2023-05-10T09:49:00.618Z,84.66
2023-05-10T09:51:48.995Z,85.12
2023-05-10T09:54:37.694Z,83.09
2023-05-10T09:57:26.845Z,82.37
2023-05-10T10:00:19.938Z,81.07
2023-05-10T10:03:15.071Z,78.71
2023-05-10T10:06:03.553Z,79.20
2023-05-10T10:08:52.594Z,78.89
2023-05-10T10:11:42.399Z,78.37
2023-05-10T10:14:30.770Z,75.17
2023-05-10T10:17:19.788Z,74.69
2023-05-10T10:20:12.227Z,75.08
2023-05-10T10:23:00.438Z,78.10
2023-05-10T10:25:50.214Z,79.89
2023-05-10T10:28:43.228Z,80.27
2023-05-10T10:31:40.039Z,80.58
2023-05-10T10:34:29.881Z,77.71
2023-05-10T10:37:19.762Z,77.05
2023-05-10T10:40:24.978Z,76.82
2023-05-10T10:43:26.621Z,77.65
2023-05-10T10:46:16.523Z,78.60
2023-05-10T10:49:11.911Z,75.36
2023-05-10T10:52:16.737Z,72.98
2023-05-10T10:55:09.109Z,74.39
2023-05-10T10:58:03.423Z,71.77
2023-05-10T11:00:51.713Z,70.60
2023-05-10T11:03:40.219Z,70.07
2023-05-10T11:06:32.874Z,69.21
2023-05-10T11:09:21.704Z,68.20
2023-05-10T11:12:11.779Z,67.26
2023-05-10T11:14:59.940Z,65.64
2023-05-10T11:17:53.193Z,66.49
2023-05-10T11:20:41.462Z,62.86
2023-05-10T11:23:33.703Z,65.24
2023-05-10T11:26:24.152Z,64.46
2023-05-10T11:29:15.100Z,64.96
2023-05-10T11:32:03.520Z,61.91
2023-05-10T11:34:51.427Z,64.88
2023-05-10T11:37:42.525Z,63.88
2023-05-10T11:40:30.525Z,62.91
2023-05-10T11:43:18.706Z,61.82
2023-05-10T11:46:09.207Z,62.13
2023-05-10T11:49:01.843Z,64.01
2023-05-10T11:51:49.795Z,64.04
2023-05-10T11:54:38.140Z,62.69
2023-05-10T11:57:29.221Z,63.17
2023-05-10T12:00:18.039Z,64.08
2023-05-10T12:03:08.255Z,62.89
2023-05-10T12:05:56.966Z,64.93
2023-05-10T12:08:47.625Z,62.99
2023-05-10T12:11:39.660Z,63.34
2023-05-10T12:14:29.380Z,62.37
2023-05-10T12:17:17.271Z,58.87
2023-05-10T12:20:23.627Z,56.09
2023-05-10T12:23:11.975Z,53.23
2023-05-10T12:26:04.186Z,55.05
2023-05-10T12:28:52.404Z,54.05
2023-05-10T12:31:51.463Z,52.35
2023-05-10T12:34:39.704Z,54.18
2023-05-10T12:37:31.153Z,55.26
2023-05-10T12:40:19.610Z,55.54
2023-05-10T12:43:07.534Z,56.61
2023-05-10T12:45:55.915Z,56.95
2023-05-10T12:48:45.672Z,59.04
2023-05-10T12:51:33.641Z,60.63
2023-05-10T12:54:22.984Z,61.71
2023-05-10T12:57:11.207Z,61.71
2023-05-10T12:59:59.253Z,63.36
2023-05-10T13:02:47.231Z,64.17
2023-05-10T13:05:35.407Z,61.55
2023-05-10T13:08:23.401Z,59.56
2023-05-10T13:11:13.040Z,57.33
2023-05-10T13:14:01.408Z,53.99
2023-05-10T13:16:49.417Z,55.20
2023-05-10T13:19:37.414Z,48.97
2023-05-10T13:22:36.274Z,50.06
2023-05-10T13:25:27.716Z,50.39
2023-05-10T13:28:16.981Z,51.58
2023-05-10T13:31:05.213Z,52.24
2023-05-10T13:33:53.156Z,52.06
2023-05-10T13:36:41.255Z,51.76
2023-05-10T13:39:31.930Z,51.57
2023-05-10T13:42:20.085Z,54.10
2023-05-10T13:45:10.701Z,55.17
2023-05-10T13:47:58.665Z,56.46
2023-05-10T13:50:47.276Z,57.41
2023-05-10T13:53:35.209Z,54.96
2023-05-10T13:56:23.324Z,55.44
2023-05-10T13:59:11.272Z,54.53
2023-05-10T14:02:01.069Z,52.89
2023-05-10T14:04:49.333Z,54.33
2023-05-10T14:07:37.220Z,53.89
2023-05-10T14:10:25.135Z,54.04
2023-05-10T14:13:13.089Z,55.15
2023-05-10T14:16:02.244Z,51.97
2023-05-10T14:18:51.552Z,52.63
2023-05-10T14:21:39.908Z,53.87
2023-05-10T14:24:27.831Z,53.68
2023-05-10T14:27:16.158Z,52.69
2023-05-10T14:30:04.588Z,53.06
2023-05-10T14:32:54.863Z,52.37
2023-05-10T14:35:44.172Z,54.70
2023-05-10T14:38:32.097Z,53.44
2023-05-10T14:41:20.450Z,52.72
2023-05-10T14:44:08.435Z,53.14
2023-05-10T14:46:56.844Z,52.31
2023-05-10T14:49:44.765Z,51.33
2023-05-10T14:52:34.447Z,51.92
2023-05-10T14:55:22.460Z,50.55
2023-05-10T14:58:10.603Z,49.36
2023-05-10T15:00:58.911Z,49.10
2023-05-10T15:03:47.241Z,48.74
2023-05-10T15:06:36.804Z,48.84
2023-05-10T15:09:26.113Z,51.22
2023-05-10T15:12:14.468Z,48.02
2023-05-10T15:15:03.025Z,48.22
2023-05-10T15:17:51.411Z,48.45
2023-05-10T15:20:39.388Z,48.13
2023-05-10T15:23:27.799Z,49.09
2023-05-10T15:26:17.322Z,46.53
2023-05-10T15:29:05.251Z,45.49
2023-05-10T15:31:53.720Z,46.12
2023-05-10T15:34:41.932Z,46.76
2023-05-10T15:37:30.040Z,47.01
2023-05-10T15:40:18.185Z,47.97
2023-05-10T15:43:07.917Z,47.88
2023-05-10T15:45:55.786Z,48.63
2023-05-10T15:48:43.959Z,48.14
2023-05-10T15:51:35.369Z,49.43
2023-05-10T15:54:24.493Z,48.88
2023-05-10T15:57:12.785Z,46.48
2023-05-10T16:00:02.327Z,48.04
2023-05-10T16:03:00.288Z,48.46
2023-05-10T16:05:48.427Z,47.65
2023-05-10T16:08:36.580Z,45.19
2023-05-10T16:11:24.566Z,48.31
2023-05-10T16:14:12.697Z,46.46
2023-05-10T16:17:03.132Z,45.13
2023-05-10T16:19:51.189Z,43.44
2023-05-10T16:22:39.415Z,46.28
2023-05-10T16:25:27.298Z,46.35
2023-05-10T16:28:15.379Z,46.51
2023-05-10T16:31:03.768Z,43.26
2023-05-10T16:33:53.164Z,43.80
2023-05-10T16:36:41.080Z,43.35
2023-05-10T16:39:29.238Z,43.90
2023-05-10T16:42:17.836Z,40.74
2023-05-10T16:45:09.012Z,45.09
2023-05-10T16:47:57.220Z,45.66
2023-05-10T16:50:46.743Z,46.27
2023-05-10T16:53:34.729Z,44.13
2023-05-10T16:56:23.280Z,42.81
2023-05-10T16:59:11.519Z,44.32
2023-05-10T17:01:59.521Z,42.50
2023-05-10T17:04:47.696Z,44.90
2023-05-10T17:07:37.107Z,49.09
2023-05-10T17:10:25.007Z,45.13
2023-05-10T17:13:13.386Z,49.23
2023-05-10T17:16:03.477Z,46.28
2023-05-10T17:18:51.961Z,51.97
2023-05-10T17:21:39.914Z,52.46
2023-05-10T17:24:29.753Z,51.62
2023-05-10T17:27:17.652Z,57.43
2023-05-10T17:30:06.995Z,60.30
2023-05-10T17:32:55.032Z,63.49
2023-05-10T17:35:46.538Z,62.56
2023-05-10T17:38:34.489Z,60.25
2023-05-10T17:41:24.828Z,60.95
2023-05-10T17:44:13.347Z,66.54
2023-05-10T17:47:02.263Z,68.32
2023-05-10T17:49:50.188Z,70.00
2023-05-10T17:52:38.636Z,68.45
2023-05-10T17:55:27.095Z,70.06
2023-05-10T17:58:16.649Z,70.28
2023-05-10T18:01:04.792Z,70.97
2023-05-10T18:03:53.393Z,72.96
2023-05-10T18:06:41.610Z,72.93
2023-05-10T18:09:30.501Z,72.06
2023-05-10T18:12:18.723Z,72.38
2023-05-10T18:15:09.567Z,72.06
2023-05-10T18:17:57.540Z,72.83
2023-05-10T18:20:46.806Z,73.35
2023-05-10T18:23:34.728Z,74.77
2023-05-10T18:26:23.021Z,74.54
2023-05-10T18:29:10.962Z,74.73
2023-05-10T18:32:00.588Z,74.93
2023-05-10T18:34:48.506Z,75.77
2023-05-10T18:37:38.557Z,75.26
2023-05-10T18:40:28.535Z,75.41
2023-05-10T18:43:16.794Z,76.07
2023-05-10T18:46:04.890Z,75.49
2023-05-10T18:48:55.548Z,69.29
2023-05-10T18:51:43.496Z,71.19
2023-05-10T18:54:31.721Z,72.67
2023-05-10T18:57:21.024Z,71.78
2023-05-10T19:00:11.480Z,73.56
2023-05-10T19:02:59.477Z,75.61
2023-05-10T19:05:49.417Z,74.59
2023-05-10T19:08:37.345Z,67.69
2023-05-10T19:11:26.199Z,72.96
2023-05-10T19:14:14.216Z,75.56
2023-05-10T19:17:02.492Z,76.21
2023-05-10T19:19:50.620Z,76.76
2023-05-10T19:25:30.756Z,76.08
2023-05-10T19:28:19.085Z,75.69
2023-05-10T19:31:08.762Z,74.70
2023-05-10T19:33:59.985Z,71.62
2023-05-10T19:36:48.635Z,69.25
2023-05-10T19:39:37.954Z,65.86
2023-05-10T19:42:25.954Z,67.22
2023-05-10T19:45:15.954Z,65.03
2023-05-10T19:48:04.513Z,66.37
2023-05-10T19:50:53.450Z,62.87
2023-05-10T19:53:44.579Z,63.09
2023-05-10T19:56:34.259Z,62.18
2023-05-10T19:59:22.254Z,64.01
2023-05-10T20:02:10.628Z,64.96
2023-05-10T20:04:58.668Z,65.80
2023-05-10T20:07:46.914Z,63.94
2023-05-10T20:10:34.798Z,64.39
2023-05-10T20:13:24.724Z,65.79
2023-05-10T20:16:12.677Z,64.96
2023-05-10T20:19:01.401Z,64.93
2023-05-10T20:21:49.349Z,65.90
2023-05-10T20:24:37.675Z,67.03
2023-05-10T20:27:25.666Z,66.96
2023-05-10T20:30:15.928Z,66.51
2023-05-10T20:33:04.207Z,66.65
2023-05-10T20:35:52.404Z,67.65
2023-05-10T20:38:40.324Z,67.43
2023-05-10T20:41:28.488Z,67.45
2023-05-10T20:44:16.436Z,67.28
2023-05-10T20:47:06.787Z,69.70
2023-05-10T20:49:54.755Z,73.23
2023-05-10T20:52:42.963Z,69.81
2023-05-10T20:55:30.907Z,70.81
2023-05-10T20:58:19.125Z,72.03
2023-05-10T21:01:07.050Z,71.46
2023-05-10T21:03:56.347Z,73.77
2023-05-10T21:06:44.608Z,74.85
2023-05-10T21:09:32.895Z,75.46
2023-05-10T21:12:20.842Z,75.65
2023-05-10T21:15:10.404Z,77.00
2023-05-10T21:17:59.762Z,77.81
2023-05-10T21:20:49.618Z,76.52
2023-05-10T21:23:37.537Z,77.94
2023-05-10T21:26:26.117Z,79.06
2023-05-10T21:29:14.137Z,79.04
2023-05-10T21:32:02.610Z,78.05
2023-05-10T21:34:51.083Z,77.10
2023-05-10T21:37:40.682Z,75.69
2023-05-10T21:40:29.629Z,72.86
2023-05-10T21:43:17.792Z,74.22
2023-05-10T21:46:05.907Z,75.27
2023-05-10T21:48:54.131Z,75.21
2023-05-10T21:51:42.049Z,77.77
2023-05-10T21:54:31.689Z,77.32
2023-05-10T21:57:21.366Z,79.11
2023-05-10T22:00:11.371Z,78.47
2023-05-10T22:03:00.714Z,80.11
2023-05-10T22:05:49.099Z,79.60
2023-05-10T22:08:37.032Z,80.22
2023-05-10T22:11:26.773Z,81.59
2023-05-10T22:14:14.739Z,81.93
2023-05-10T22:17:02.693Z,82.63
2023-05-10T22:19:50.641Z,82.75
2023-05-10T22:22:38.720Z,83.65
2023-05-10T22:25:27.030Z,83.50
2023-05-10T22:28:16.481Z,84.42
2023-05-10T22:31:04.684Z,85.26
2023-05-10T22:33:53.069Z,84.62
2023-05-10T22:36:41.013Z,85.31
2023-05-10T22:39:29.233Z,85.13
2023-05-10T22:42:17.467Z,85.45
2023-05-10T22:45:08.813Z,85.72
2023-05-10T22:47:56.791Z,85.46
2023-05-10T22:50:45.010Z,86.67
2023-05-10T22:53:32.900Z,85.93
2023-05-10T22:56:21.949Z,85.69
2023-05-10T22:59:10.071Z,86.59
2023-05-10T23:02:00.220Z,86.24
2023-05-10T23:04:48.233Z,86.87
2023-05-10T23:07:36.904Z,87.13
2023-05-10T23:10:25.118Z,87.56
2023-05-10T23:13:13.319Z,86.36
2023-05-10T23:16:05.998Z,87.90
2023-05-10T23:18:55.561Z,87.00
2023-05-10T23:21:43.533Z,87.39
2023-05-10T23:24:31.451Z,86.40
2023-05-10T23:27:19.333Z,86.78
2023-05-10T23:30:08.872Z,86.89
2023-05-10T23:32:56.831Z,87.53
2023-05-10T23:35:46.304Z,87.82
2023-05-10T23:38:34.244Z,86.82
2023-05-10T23:41:22.789Z,87.36
2023-05-10T23:44:10.832Z,87.68
2023-05-10T23:46:58.744Z,87.62
2023-05-10T23:49:46.644Z,87.54
2023-05-10T23:52:36.379Z,88.20
2023-05-10T23:55:24.262Z,87.51
2023-05-10T23:58:12.554Z,86.55
